sensor_id;sensor_type;location;lat;lon;timestamp;pressure;altitude;pressure_sealevel;temperature;humidity
7105;BME280;3594;42.152;24.714;2023-02-28T00:01:18;-24073.13;;;9.17;nan
7105;BME280;3594;42.152;24.714;2023-02-28T00:03:44;-24070.88;;;9.09;nan
7105;BME280;3594;42.152;24.714;2023-02-28T00:06:09;-24072.44;;;9.14;nan
7105;BME280;3594;42.152;24.714;2023-02-28T00:08:35;-24073.00;;;9.16;nan
7105;BME280;3594;42.152;24.714;2023-02-28T00:11:03;-24069.75;;;9.05;nan
7105;BME280;3594;42.152;24.714;2023-02-28T00:13:29;-24063.38;;;8.82;nan
7105;BME280;3594;42.152;24.714;2023-02-28T00:16:03;-24070.16;;;9.06;nan
7105;BME280;3594;42.152;24.714;2023-02-28T00:18:29;-24070.59;;;9.08;nan
7105;BME280;3594;42.152;24.714;2023-02-28T00:20:54;-24067.63;;;8.97;nan
7105;BME280;3594;42.152;24.714;2023-02-28T00:23:20;-24057.56;;;8.61;nan
7105;BME280;3594;42.152;24.714;2023-02-28T00:25:45;-24017.78;;;7.19;nan
7105;BME280;3594;42.152;24.714;2023-02-28T00:28:11;-24058.56;;;8.65;nan
7105;BME280;3594;42.152;24.714;2023-02-28T00:30:36;-24064.50;;;8.86;nan
7105;BME280;3594;42.152;24.714;2023-02-28T00:33:02;-24065.06;;;8.88;nan
7105;BME280;3594;42.152;24.714;2023-02-28T00:35:27;-24058.56;;;8.65;nan
7105;BME280;3594;42.152;24.714;2023-02-28T00:37:52;-24067.47;;;8.97;nan
7105;BME280;3594;42.152;24.714;2023-02-28T00:40:18;-24054.88;;;8.52;nan
7105;BME280;3594;42.152;24.714;2023-02-28T00:42:44;-24063.81;;;8.83;nan
7105;BME280;3594;42.152;24.714;2023-02-28T00:45:12;-24060.56;;;8.72;nan
7105;BME280;3594;42.152;24.714;2023-02-28T00:47:38;-24064.78;;;8.87;nan
7105;BME280;3594;42.152;24.714;2023-02-28T00:50:03;-24066.34;;;8.93;nan
7105;BME280;3594;42.152;24.714;2023-02-28T00:52:29;-24064.94;;;8.88;nan
7105;BME280;3594;42.152;24.714;2023-02-28T00:54:55;-24066.50;;;8.93;nan
7105;BME280;3594;42.152;24.714;2023-02-28T00:57:20;-24063.81;;;8.83;nan
7105;BME280;3594;42.152;24.714;2023-02-28T00:59:45;-24056.03;;;8.56;nan
7105;BME280;3594;42.152;24.714;2023-02-28T01:02:11;-24059.56;;;8.68;nan
7105;BME280;3594;42.152;24.714;2023-02-28T01:04:36;-24053.19;;;8.46;nan
7105;BME280;3594;42.152;24.714;2023-02-28T01:07:02;-24062.25;;;8.78;nan
7105;BME280;3594;42.152;24.714;2023-02-28T01:09:27;-24053.91;;;8.48;nan
7105;BME280;3594;42.152;24.714;2023-02-28T01:11:52;-24058.16;;;8.63;nan
7105;BME280;3594;42.152;24.714;2023-02-28T01:14:18;-24056.16;;;8.56;nan
7105;BME280;3594;42.152;24.714;2023-02-28T01:16:44;-24058.56;;;8.65;nan
7105;BME280;3594;42.152;24.714;2023-02-28T01:19:10;-24060.13;;;8.70;nan
7105;BME280;3594;42.152;24.714;2023-02-28T01:21:35;-24058.44;;;8.64;nan
7105;BME280;3594;42.152;24.714;2023-02-28T01:24:02;-24068.91;;;9.02;nan
7105;BME280;3594;42.152;24.714;2023-02-28T01:26:28;-24068.47;;;9.00;nan
7105;BME280;3594;42.152;24.714;2023-02-28T01:28:53;-24067.19;;;8.96;nan
7105;BME280;3594;42.152;24.714;2023-02-28T01:31:19;-24050.38;;;8.35;nan
7105;BME280;3594;42.152;24.714;2023-02-28T01:33:45;-24062.94;;;8.80;nan
7105;BME280;3594;42.152;24.714;2023-02-28T01:36:17;-24062.53;;;8.79;nan
7105;BME280;3594;42.152;24.714;2023-02-28T01:38:43;-24066.50;;;8.93;nan
7105;BME280;3594;42.152;24.714;2023-02-28T01:41:16;-24062.25;;;8.78;nan
7105;BME280;3594;42.152;24.714;2023-02-28T01:46:08;-24062.09;;;8.77;nan
7105;BME280;3594;42.152;24.714;2023-02-28T01:48:37;-24062.53;;;8.79;nan
7105;BME280;3594;42.152;24.714;2023-02-28T01:51:08;-24061.25;;;8.74;nan
7105;BME280;3594;42.152;24.714;2023-02-28T01:53:50;-24057.72;;;8.62;nan
7105;BME280;3594;42.152;24.714;2023-02-28T01:56:20;-24067.75;;;8.98;nan
7105;BME280;3594;42.152;24.714;2023-02-28T01:58:53;-24043.84;;;8.12;nan
7105;BME280;3594;42.152;24.714;2023-02-28T02:01:20;-24069.59;;;9.04;nan
7105;BME280;3594;42.152;24.714;2023-02-28T02:03:59;-24072.56;;;9.15;nan
7105;BME280;3594;42.152;24.714;2023-02-28T02:06:43;-24073.72;;;9.19;nan
7105;BME280;3594;42.152;24.714;2023-02-28T02:09:10;-24067.19;;;8.96;nan
7105;BME280;3594;42.152;24.714;2023-02-28T02:11:36;-24076.81;;;9.30;nan
7105;BME280;3594;42.152;24.714;2023-02-28T02:14:13;-24079.78;;;9.41;nan
7105;BME280;3594;42.152;24.714;2023-02-28T02:22:37;-24084.88;;;9.59;nan
7105;BME280;3594;42.152;24.714;2023-02-28T02:31:10;-24082.03;;;9.49;nan
7105;BME280;3594;42.152;24.714;2023-02-28T02:36:32;-24077.53;;;9.32;nan
7105;BME280;3594;42.152;24.714;2023-02-28T02:39:30;-24081.06;;;9.45;nan
7105;BME280;3594;42.152;24.714;2023-02-28T02:42:00;-24077.09;;;9.31;nan
7105;BME280;3594;42.152;24.714;2023-02-28T02:45:28;-24077.81;;;9.34;nan
7105;BME280;3594;42.152;24.714;2023-02-28T02:47:35;-24076.25;;;9.28;nan
7105;BME280;3594;42.152;24.714;2023-02-28T02:50:05;-24073.72;;;9.19;nan
7105;BME280;3594;42.152;24.714;2023-02-28T02:52:43;-24071.72;;;9.12;nan
7105;BME280;3594;42.152;24.714;2023-02-28T02:55:12;-24071.44;;;9.11;nan
7105;BME280;3594;42.152;24.714;2023-02-28T02:57:51;-24061.69;;;8.76;nan
7105;BME280;3594;42.152;24.714;2023-02-28T03:00:24;-24072.72;;;9.15;nan
7105;BME280;3594;42.152;24.714;2023-02-28T03:02:54;-24072.56;;;9.15;nan
7105;BME280;3594;42.152;24.714;2023-02-28T03:05:25;-24075.81;;;9.26;nan
7105;BME280;3594;42.152;24.714;2023-02-28T03:07:51;-24066.91;;;8.95;nan
7105;BME280;3594;42.152;24.714;2023-02-28T03:10:46;-24074.56;;;9.22;nan
7105;BME280;3594;42.152;24.714;2023-02-28T03:24:41;-24068.03;;;8.99;nan
7105;BME280;3594;42.152;24.714;2023-02-28T03:27:20;-24067.19;;;8.96;nan
7105;BME280;3594;42.152;24.714;2023-02-28T03:29:55;-24072.72;;;9.15;nan
7105;BME280;3594;42.152;24.714;2023-02-28T03:32:54;-24068.75;;;9.01;nan
7105;BME280;3594;42.152;24.714;2023-02-28T03:35:22;-24072.28;;;9.14;nan
7105;BME280;3594;42.152;24.714;2023-02-28T03:37:52;-24064.94;;;8.88;nan
7105;BME280;3594;42.152;24.714;2023-02-28T03:40:23;-24073.28;;;9.17;nan
7105;BME280;3594;42.152;24.714;2023-02-28T03:42:55;-24071.72;;;9.12;nan
7105;BME280;3594;42.152;24.714;2023-02-28T03:45:26;-24075.41;;;9.25;nan
7105;BME280;3594;42.152;24.714;2023-02-28T03:50:38;-24071.59;;;9.11;nan
7105;BME280;3594;42.152;24.714;2023-02-28T03:55:45;-24069.59;;;9.04;nan
7105;BME280;3594;42.152;24.714;2023-02-28T03:58:57;-24069.88;;;9.05;nan
7105;BME280;3594;42.152;24.714;2023-02-28T04:01:28;-24065.50;;;8.90;nan
7105;BME280;3594;42.152;24.714;2023-02-28T04:03:55;-24039.03;;;7.95;nan
7105;BME280;3594;42.152;24.714;2023-02-28T04:06:22;-24066.06;;;8.92;nan
7105;BME280;3594;42.152;24.714;2023-02-28T04:08:48;-24061.81;;;8.76;nan
7105;BME280;3594;42.152;24.714;2023-02-28T04:11:21;-24069.31;;;9.03;nan
7105;BME280;3594;42.152;24.714;2023-02-28T04:13:47;-24067.06;;;8.95;nan
7105;BME280;3594;42.152;24.714;2023-02-28T04:16:13;-24070.44;;;9.07;nan
7105;BME280;3594;42.152;24.714;2023-02-28T04:18:39;-24067.34;;;8.96;nan
7105;BME280;3594;42.152;24.714;2023-02-28T04:21:05;-24073.56;;;9.18;nan
7105;BME280;3594;42.152;24.714;2023-02-28T04:23:31;-24064.78;;;8.87;nan
7105;BME280;3594;42.152;24.714;2023-02-28T04:25:57;-24062.38;;;8.78;nan
7105;BME280;3594;42.152;24.714;2023-02-28T04:28:22;-24071.16;;;9.10;nan
7105;BME280;3594;42.152;24.714;2023-02-28T04:30:54;-24073.13;;;9.17;nan
7105;BME280;3594;42.152;24.714;2023-02-28T04:33:20;-24063.09;;;8.81;nan
7105;BME280;3594;42.152;24.714;2023-02-28T04:35:45;-24060.25;;;8.71;nan
7105;BME280;3594;42.152;24.714;2023-02-28T04:38:11;-24064.94;;;8.88;nan
7105;BME280;3594;42.152;24.714;2023-02-28T04:40:36;-24066.06;;;8.92;nan
7105;BME280;3594;42.152;24.714;2023-02-28T04:43:02;-24069.19;;;9.03;nan
7105;BME280;3594;42.152;24.714;2023-02-28T04:45:28;-24062.94;;;8.80;nan
7105;BME280;3594;42.152;24.714;2023-02-28T04:47:57;-24067.19;;;8.96;nan
7105;BME280;3594;42.152;24.714;2023-02-28T04:50:23;-24062.94;;;8.80;nan
7105;BME280;3594;42.152;24.714;2023-02-28T04:52:48;-24063.38;;;8.82;nan
7105;BME280;3594;42.152;24.714;2023-02-28T04:55:14;-24064.78;;;8.87;nan
7105;BME280;3594;42.152;24.714;2023-02-28T04:57:39;-24062.09;;;8.77;nan
7105;BME280;3594;42.152;24.714;2023-02-28T05:00:09;-24069.75;;;9.05;nan
7105;BME280;3594;42.152;24.714;2023-02-28T05:02:37;-24069.75;;;9.05;nan
7105;BME280;3594;42.152;24.714;2023-02-28T05:05:04;-24070.88;;;9.09;nan
7105;BME280;3594;42.152;24.714;2023-02-28T05:07:30;-24061.41;;;8.75;nan
7105;BME280;3594;42.152;24.714;2023-02-28T05:09:55;-24070.72;;;9.08;nan
7105;BME280;3594;42.152;24.714;2023-02-28T05:12:21;-24067.75;;;8.98;nan
7105;BME280;3594;42.152;24.714;2023-02-28T05:14:46;-24068.19;;;8.99;nan
7105;BME280;3594;42.152;24.714;2023-02-28T05:17:12;-24069.03;;;9.02;nan
7105;BME280;3594;42.152;24.714;2023-02-28T05:19:37;-24069.03;;;9.02;nan
7105;BME280;3594;42.152;24.714;2023-02-28T05:22:03;-24064.94;;;8.88;nan
7105;BME280;3594;42.152;24.714;2023-02-28T05:24:28;-24061.25;;;8.74;nan
7105;BME280;3594;42.152;24.714;2023-02-28T05:26:54;-24061.13;;;8.74;nan
7105;BME280;3594;42.152;24.714;2023-02-28T05:29:20;-24067.19;;;8.96;nan
7105;BME280;3594;42.152;24.714;2023-02-28T05:31:46;-24069.59;;;9.04;nan
7105;BME280;3594;42.152;24.714;2023-02-28T05:34:12;-24057.28;;;8.60;nan
7105;BME280;3594;42.152;24.714;2023-02-28T05:36:38;-24068.03;;;8.99;nan
7105;BME280;3594;42.152;24.714;2023-02-28T05:39:06;-24071.44;;;9.11;nan
7105;BME280;3594;42.152;24.714;2023-02-28T05:41:32;-24063.66;;;8.83;nan
7105;BME280;3594;42.152;24.714;2023-02-28T05:43:58;-24068.03;;;8.99;nan
7105;BME280;3594;42.152;24.714;2023-02-28T05:46:24;-24071.31;;;9.10;nan
7105;BME280;3594;42.152;24.714;2023-02-28T05:48:50;-24072.00;;;9.13;nan
7105;BME280;3594;42.152;24.714;2023-02-28T05:51:17;-24068.63;;;9.01;nan
7105;BME280;3594;42.152;24.714;2023-02-28T05:53:43;-24053.63;;;8.47;nan
7105;BME280;3594;42.152;24.714;2023-02-28T05:56:08;-24070.72;;;9.08;nan
7105;BME280;3594;42.152;24.714;2023-02-28T05:58:34;-24069.59;;;9.04;nan
7105;BME280;3594;42.152;24.714;2023-02-28T06:01:00;-24072.00;;;9.13;nan
7105;BME280;3594;42.152;24.714;2023-02-28T06:03:26;-24067.91;;;8.98;nan
7105;BME280;3594;42.152;24.714;2023-02-28T06:05:52;-24075.97;;;9.27;nan
7105;BME280;3594;42.152;24.714;2023-02-28T06:08:18;-24083.75;;;9.55;nan
7105;BME280;3594;42.152;24.714;2023-02-28T06:10:44;-24081.19;;;9.46;nan
7105;BME280;3594;42.152;24.714;2023-02-28T06:13:10;-24092.91;;;9.88;nan
7105;BME280;3594;42.152;24.714;2023-02-28T06:15:37;-24095.59;;;9.97;nan
7105;BME280;3594;42.152;24.714;2023-02-28T06:18:02;-24092.91;;;9.88;nan
7105;BME280;3594;42.152;24.714;2023-02-28T06:20:28;-24088.41;;;9.71;nan
7105;BME280;3594;42.152;24.714;2023-02-28T06:22:56;-24078.94;;;9.38;nan
7105;BME280;3594;42.152;24.714;2023-02-28T06:25:23;-24083.88;;;9.55;nan
7105;BME280;3594;42.152;24.714;2023-02-28T06:27:49;-24098.56;;;10.08;nan
7105;BME280;3594;42.152;24.714;2023-02-28T06:30:15;-24094.06;;;9.92;nan
7105;BME280;3594;42.152;24.714;2023-02-28T06:32:40;-24098.84;;;10.09;nan
7105;BME280;3594;42.152;24.714;2023-02-28T06:35:06;-24102.25;;;10.21;nan
7105;BME280;3594;42.152;24.714;2023-02-28T06:37:32;-24096.88;;;10.02;nan
7105;BME280;3594;42.152;24.714;2023-02-28T06:39:58;-24099.56;;;10.11;nan
7105;BME280;3594;42.152;24.714;2023-02-28T06:42:24;-24094.75;;;9.94;nan
7105;BME280;3594;42.152;24.714;2023-02-28T06:44:56;-24092.78;;;9.87;nan
7105;BME280;3594;42.152;24.714;2023-02-28T06:47:22;-24099.13;;;10.10;nan
7105;BME280;3594;42.152;24.714;2023-02-28T06:49:48;-24103.53;;;10.26;nan
7105;BME280;3594;42.152;24.714;2023-02-28T06:52:14;-24099.13;;;10.10;nan
7105;BME280;3594;42.152;24.714;2023-02-28T06:54:39;-24093.78;;;9.91;nan
7105;BME280;3594;42.152;24.714;2023-02-28T06:57:04;-24097.44;;;10.04;nan
7105;BME280;3594;42.152;24.714;2023-02-28T06:59:30;-24094.34;;;9.93;nan
7105;BME280;3594;42.152;24.714;2023-02-28T07:01:55;-24095.75;;;9.98;nan
7105;BME280;3594;42.152;24.714;2023-02-28T07:04:21;-24098.00;;;10.06;nan
7105;BME280;3594;42.152;24.714;2023-02-28T07:06:47;-24092.06;;;9.85;nan
7105;BME280;3594;42.152;24.714;2023-02-28T07:09:12;-24081.34;;;9.46;nan
7105;BME280;3594;42.152;24.714;2023-02-28T07:11:39;-24090.53;;;9.79;nan
7105;BME280;3594;42.152;24.714;2023-02-28T07:14:06;-24085.00;;;9.59;nan
7105;BME280;3594;42.152;24.714;2023-02-28T07:16:31;-24090.53;;;9.79;nan
7105;BME280;3594;42.152;24.714;2023-02-28T07:18:57;-24085.00;;;9.59;nan
7105;BME280;3594;42.152;24.714;2023-02-28T07:21:22;-24093.63;;;9.90;nan
7105;BME280;3594;42.152;24.714;2023-02-28T07:23:48;-24092.22;;;9.85;nan
7105;BME280;3594;42.152;24.714;2023-02-28T07:26:16;-24096.03;;;9.99;nan
7105;BME280;3594;42.152;24.714;2023-02-28T07:28:43;-24086.56;;;9.65;nan
7105;BME280;3594;42.152;24.714;2023-02-28T07:31:09;-24093.91;;;9.91;nan
7105;BME280;3594;42.152;24.714;2023-02-28T07:33:35;-24085.84;;;9.62;nan
7105;BME280;3594;42.152;24.714;2023-02-28T07:36:03;-24085.16;;;9.60;nan
7105;BME280;3594;42.152;24.714;2023-02-28T07:38:29;-24086.56;;;9.65;nan
7105;BME280;3594;42.152;24.714;2023-02-28T07:40:54;-24092.91;;;9.88;nan
7105;BME280;3594;42.152;24.714;2023-02-28T07:43:20;-24090.25;;;9.78;nan
7105;BME280;3594;42.152;24.714;2023-02-28T07:45:45;-24092.78;;;9.87;nan
7105;BME280;3594;42.152;24.714;2023-02-28T07:48:11;-24089.53;;;9.75;nan
7105;BME280;3594;42.152;24.714;2023-02-28T07:50:36;-24085.16;;;9.60;nan
7105;BME280;3594;42.152;24.714;2023-02-28T07:53:01;-24071.88;;;9.12;nan
7105;BME280;3594;42.152;24.714;2023-02-28T07:55:27;-24078.66;;;9.37;nan
7105;BME280;3594;42.152;24.714;2023-02-28T07:57:52;-24081.91;;;9.48;nan
7105;BME280;3594;42.152;24.714;2023-02-28T08:00:18;-24089.09;;;9.74;nan
7105;BME280;3594;42.152;24.714;2023-02-28T08:02:43;-24092.63;;;9.87;nan
7105;BME280;3594;42.152;24.714;2023-02-28T08:05:09;-24079.50;;;9.40;nan
7105;BME280;3594;42.152;24.714;2023-02-28T08:07:35;-24076.25;;;9.28;nan
7105;BME280;3594;42.152;24.714;2023-02-28T08:10:00;-24085.00;;;9.59;nan
7105;BME280;3594;42.152;24.714;2023-02-28T08:12:26;-24084.16;;;9.56;nan
7105;BME280;3594;42.152;24.714;2023-02-28T08:14:51;-24089.94;;;9.77;nan
7105;BME280;3594;42.152;24.714;2023-02-28T08:17:17;-24087.13;;;9.67;nan
7105;BME280;3594;42.152;24.714;2023-02-28T08:19:45;-24083.03;;;9.52;nan
7105;BME280;3594;42.152;24.714;2023-02-28T08:22:11;-24073.72;;;9.19;nan
7105;BME280;3594;42.152;24.714;2023-02-28T08:24:36;-24068.75;;;9.01;nan
7105;BME280;3594;42.152;24.714;2023-02-28T08:27:02;-24072.28;;;9.14;nan
7105;BME280;3594;42.152;24.714;2023-02-28T08:29:27;-24073.28;;;9.17;nan
7105;BME280;3594;42.152;24.714;2023-02-28T08:31:52;-24065.78;;;8.91;nan
7105;BME280;3594;42.152;24.714;2023-02-28T08:34:18;-24083.75;;;9.55;nan
7105;BME280;3594;42.152;24.714;2023-02-28T08:36:43;-24081.06;;;9.45;nan
7105;BME280;3594;42.152;24.714;2023-02-28T08:39:10;-24079.34;;;9.39;nan
7105;BME280;3594;42.152;24.714;2023-02-28T08:44:00;-24074.41;;;9.21;nan
7105;BME280;3594;42.152;24.714;2023-02-28T08:46:26;-24080.78;;;9.44;nan
7105;BME280;3594;42.152;24.714;2023-02-28T08:48:53;-24067.06;;;8.95;nan
7105;BME280;3594;42.152;24.714;2023-02-28T08:51:20;-24079.22;;;9.39;nan
7105;BME280;3594;42.152;24.714;2023-02-28T08:53:57;-24087.56;;;9.68;nan
7105;BME280;3594;42.152;24.714;2023-02-28T08:56:23;-24093.47;;;9.90;nan
7105;BME280;3594;42.152;24.714;2023-02-28T08:58:49;-24079.06;;;9.38;nan
7105;BME280;3594;42.152;24.714;2023-02-28T09:01:24;-24094.47;;;9.93;nan
7105;BME280;3594;42.152;24.714;2023-02-28T09:03:50;-24092.06;;;9.85;nan
7105;BME280;3594;42.152;24.714;2023-02-28T09:06:18;-24097.16;;;10.03;nan
7105;BME280;3594;42.152;24.714;2023-02-28T09:08:44;-24089.38;;;9.75;nan
7105;BME280;3594;42.152;24.714;2023-02-28T09:11:10;-24086.84;;;9.66;nan
7105;BME280;3594;42.152;24.714;2023-02-28T09:13:36;-24084.44;;;9.57;nan
7105;BME280;3594;42.152;24.714;2023-02-28T09:16:04;-24069.75;;;9.05;nan
7105;BME280;3594;42.152;24.714;2023-02-28T09:18:30;-24094.34;;;9.93;nan
7105;BME280;3594;42.152;24.714;2023-02-28T09:20:56;-24087.56;;;9.68;nan
7105;BME280;3594;42.152;24.714;2023-02-28T09:23:24;-24095.47;;;9.97;nan
7105;BME280;3594;42.152;24.714;2023-02-28T09:25:52;-24085.72;;;9.62;nan
7105;BME280;3594;42.152;24.714;2023-02-28T09:28:18;-24074.84;;;9.23;nan
7105;BME280;3594;42.152;24.714;2023-02-28T09:30:45;-24081.47;;;9.47;nan
7105;BME280;3594;42.152;24.714;2023-02-28T09:33:11;-24076.38;;;9.28;nan
7105;BME280;3594;42.152;24.714;2023-02-28T09:35:37;-24064.66;;;8.86;nan
7105;BME280;3594;42.152;24.714;2023-02-28T09:38:02;-24076.81;;;9.30;nan
7105;BME280;3594;42.152;24.714;2023-02-28T09:40:28;-24074.84;;;9.23;nan
7105;BME280;3594;42.152;24.714;2023-02-28T09:42:55;-24074.25;;;9.21;nan
7105;BME280;3594;42.152;24.714;2023-02-28T09:45:24;-24077.09;;;9.31;nan
7105;BME280;3594;42.152;24.714;2023-02-28T09:47:54;-24071.44;;;9.11;nan
7105;BME280;3594;42.152;24.714;2023-02-28T09:50:35;-24072.56;;;9.15;nan
7105;BME280;3594;42.152;24.714;2023-02-28T09:53:13;-24082.91;;;9.52;nan
7105;BME280;3594;42.152;24.714;2023-02-28T09:55:45;-24086.56;;;9.65;nan
7105;BME280;3594;42.152;24.714;2023-02-28T09:58:20;-24070.44;;;9.07;nan
7105;BME280;3594;42.152;24.714;2023-02-28T10:00:57;-24073.84;;;9.19;nan
7105;BME280;3594;42.152;24.714;2023-02-28T10:03:38;-24074.69;;;9.22;nan
7105;BME280;3594;42.152;24.714;2023-02-28T10:06:18;-24080.22;;;9.42;nan
7105;BME280;3594;42.152;24.714;2023-02-28T10:08:57;-24079.34;;;9.39;nan
7105;BME280;3594;42.152;24.714;2023-02-28T10:11:27;-24078.38;;;9.36;nan
7105;BME280;3594;42.152;24.714;2023-02-28T10:14:16;-24083.16;;;9.53;nan
7105;BME280;3594;42.152;24.714;2023-02-28T10:17:02;-24081.91;;;9.48;nan
7105;BME280;3594;42.152;24.714;2023-02-28T10:19:38;-24083.47;;;9.54;nan
7105;BME280;3594;42.152;24.714;2023-02-28T10:22:11;-24077.53;;;9.32;nan
7105;BME280;3594;42.152;24.714;2023-02-28T10:24:46;-24085.16;;;9.60;nan
7105;BME280;3594;42.152;24.714;2023-02-28T10:27:22;-24092.63;;;9.87;nan
7105;BME280;3594;42.152;24.714;2023-02-28T10:29:53;-24101.13;;;10.17;nan
7105;BME280;3594;42.152;24.714;2023-02-28T10:32:30;-24112.25;;;10.57;nan
7105;BME280;3594;42.152;24.714;2023-02-28T10:37:27;-24100.53;;;10.15;nan
7105;BME280;3594;42.152;24.714;2023-02-28T10:39:53;-24088.69;;;9.72;nan
7105;BME280;3594;42.152;24.714;2023-02-28T10:42:27;-24088.69;;;9.72;nan
7105;BME280;3594;42.152;24.714;2023-02-28T10:45:06;-24095.03;;;9.95;nan
7105;BME280;3594;42.152;24.714;2023-02-28T10:47:34;-24088.41;;;9.71;nan
7105;BME280;3594;42.152;24.714;2023-02-28T10:50:03;-24049.38;;;8.32;nan
7105;BME280;3594;42.152;24.714;2023-02-28T10:52:36;-24072.28;;;9.14;nan
7105;BME280;3594;42.152;24.714;2023-02-28T10:55:35;-24086.97;;;9.66;nan
7105;BME280;3594;42.152;24.714;2023-02-28T10:58:00;-24080.91;;;9.45;nan
7105;BME280;3594;42.152;24.714;2023-02-28T11:00:34;-24078.22;;;9.35;nan
7105;BME280;3594;42.152;24.714;2023-02-28T11:03:00;-24074.25;;;9.21;nan
7105;BME280;3594;42.152;24.714;2023-02-28T11:05:33;-24075.81;;;9.26;nan
7105;BME280;3594;42.152;24.714;2023-02-28T11:08:06;-24078.22;;;9.35;nan
7105;BME280;3594;42.152;24.714;2023-02-28T11:10:36;-24079.91;;;9.41;nan
7105;BME280;3594;42.152;24.714;2023-02-28T11:13:01;-24072.84;;;9.16;nan
7105;BME280;3594;42.152;24.714;2023-02-28T11:15:30;-24081.47;;;9.47;nan
7105;BME280;3594;42.152;24.714;2023-02-28T11:18:02;-24075.25;;;9.24;nan
7105;BME280;3594;42.152;24.714;2023-02-28T11:20:30;-24072.56;;;9.15;nan
7105;BME280;3594;42.152;24.714;2023-02-28T11:23:00;-24074.56;;;9.22;nan
7105;BME280;3594;42.152;24.714;2023-02-28T11:27:55;-24073.13;;;9.17;nan
7105;BME280;3594;42.152;24.714;2023-02-28T11:30:36;-24081.47;;;9.47;nan
7105;BME280;3594;42.152;24.714;2023-02-28T11:33:29;-24078.22;;;9.35;nan
7105;BME280;3594;42.152;24.714;2023-02-28T11:36:04;-24073.84;;;9.19;nan
7105;BME280;3594;42.152;24.714;2023-02-28T11:38:35;-24071.03;;;9.09;nan
7105;BME280;3594;42.152;24.714;2023-02-28T11:43:43;-24074.56;;;9.22;nan
7105;BME280;3594;42.152;24.714;2023-02-28T11:52:04;-24069.47;;;9.04;nan
7105;BME280;3594;42.152;24.714;2023-02-28T11:55:32;-24071.72;;;9.12;nan
7105;BME280;3594;42.152;24.714;2023-02-28T12:00:39;-24062.25;;;8.78;nan
7105;BME280;3594;42.152;24.714;2023-02-28T12:11:51;-24063.94;;;8.84;nan
7105;BME280;3594;42.152;24.714;2023-02-28T12:16:54;-24064.50;;;8.86;nan
7105;BME280;3594;42.152;24.714;2023-02-28T12:27:30;-24060.97;;;8.73;nan
7105;BME280;3594;42.152;24.714;2023-02-28T12:30:02;-24059.00;;;8.66;nan
7105;BME280;3594;42.152;24.714;2023-02-28T12:32:56;-24068.63;;;9.01;nan
7105;BME280;3594;42.152;24.714;2023-02-28T12:35:37;-24053.34;;;8.46;nan
7105;BME280;3594;42.152;24.714;2023-02-28T12:38:17;-24066.50;;;8.93;nan
7105;BME280;3594;42.152;24.714;2023-02-28T12:43:12;-24060.56;;;8.72;nan
7105;BME280;3594;42.152;24.714;2023-02-28T12:45:59;-24057.88;;;8.62;nan
7105;BME280;3594;42.152;24.714;2023-02-28T12:48:31;-24059.00;;;8.66;nan
7105;BME280;3594;42.152;24.714;2023-02-28T12:51:02;-24066.63;;;8.94;nan
7105;BME280;3594;42.152;24.714;2023-02-28T12:59:21;-24054.75;;;8.51;nan
7105;BME280;3594;42.152;24.714;2023-02-28T13:02:00;-24053.19;;;8.46;nan
7105;BME280;3594;42.152;24.714;2023-02-28T13:07:24;-24065.66;;;8.90;nan
7105;BME280;3594;42.152;24.714;2023-02-28T13:09:57;-24053.63;;;8.47;nan
7105;BME280;3594;42.152;24.714;2023-02-28T13:12:24;-24045.13;;;8.17;nan
7105;BME280;3594;42.152;24.714;2023-02-28T13:14:50;-24047.09;;;8.24;nan
7105;BME280;3594;42.152;24.714;2023-02-28T13:17:25;-24042.16;;;8.06;nan
7105;BME280;3594;42.152;24.714;2023-02-28T13:24:54;-24054.19;;;8.49;nan
7105;BME280;3594;42.152;24.714;2023-02-28T13:29:59;-24028.69;;;7.58;nan
7105;BME280;3594;42.152;24.714;2023-02-28T13:39:51;-24052.63;;;8.43;nan
7105;BME280;3594;42.152;24.714;2023-02-28T13:52:52;-24041.72;;;8.05;nan
7105;BME280;3594;42.152;24.714;2023-02-28T13:59:20;-24049.66;;;8.33;nan
7105;BME280;3594;42.152;24.714;2023-02-28T14:06:52;-24046.97;;;8.23;nan
7105;BME280;3594;42.152;24.714;2023-02-28T14:09:29;-24055.03;;;8.52;nan
7105;BME280;3594;42.152;24.714;2023-02-28T14:11:56;-24044.28;;;8.14;nan
7105;BME280;3594;42.152;24.714;2023-02-28T14:17:04;-24049.22;;;8.31;nan
7105;BME280;3594;42.152;24.714;2023-02-28T14:19:32;-24048.50;;;8.29;nan
7105;BME280;3594;42.152;24.714;2023-02-28T14:27:38;-24053.91;;;8.48;nan
7105;BME280;3594;42.152;24.714;2023-02-28T14:33:08;-24047.38;;;8.25;nan
7105;BME280;3594;42.152;24.714;2023-02-28T14:38:32;-24049.09;;;8.31;nan
7105;BME280;3594;42.152;24.714;2023-02-28T14:41:04;-24055.47;;;8.54;nan
7105;BME280;3594;42.152;24.714;2023-02-28T14:43:31;-24051.34;;;8.39;nan
7105;BME280;3594;42.152;24.714;2023-02-28T14:46:00;-24051.22;;;8.38;nan
7105;BME280;3594;42.152;24.714;2023-02-28T14:48:26;-24050.22;;;8.35;nan
7105;BME280;3594;42.152;24.714;2023-02-28T14:50:57;-24053.63;;;8.47;nan
7105;BME280;3594;42.152;24.714;2023-02-28T14:53:26;-24054.31;;;8.50;nan
7105;BME280;3594;42.152;24.714;2023-02-28T14:55:52;-24055.03;;;8.52;nan
7105;BME280;3594;42.152;24.714;2023-02-28T15:00:50;-24054.75;;;8.51;nan
7105;BME280;3594;42.152;24.714;2023-02-28T15:03:32;-24047.81;;;8.26;nan
7105;BME280;3594;42.152;24.714;2023-02-28T15:06:06;-24044.28;;;8.14;nan
7105;BME280;3594;42.152;24.714;2023-02-28T15:08:38;-24041.56;;;8.04;nan
7105;BME280;3594;42.152;24.714;2023-02-28T15:11:17;-24045.69;;;8.19;nan
7105;BME280;3594;42.152;24.714;2023-02-28T15:14:02;-24046.53;;;8.22;nan
7105;BME280;3594;42.152;24.714;2023-02-28T15:16:35;-24040.88;;;8.02;nan
7105;BME280;3594;42.152;24.714;2023-02-28T15:19:14;-24050.38;;;8.35;nan
7105;BME280;3594;42.152;24.714;2023-02-28T15:21:47;-24046.25;;;8.21;nan
7105;BME280;3594;42.152;24.714;2023-02-28T15:26:55;-24052.47;;;8.43;nan
7105;BME280;3594;42.152;24.714;2023-02-28T15:29:24;-24048.22;;;8.28;nan
7105;BME280;3594;42.152;24.714;2023-02-28T15:31:58;-24049.22;;;8.31;nan
7105;BME280;3594;42.152;24.714;2023-02-28T15:34:39;-24040.72;;;8.01;nan
7105;BME280;3594;42.152;24.714;2023-02-28T15:40:10;-24048.94;;;8.30;nan
7105;BME280;3594;42.152;24.714;2023-02-28T15:42:37;-24042.00;;;8.06;nan
7105;BME280;3594;42.152;24.714;2023-02-28T15:45:03;-24031.53;;;7.68;nan
7105;BME280;3594;42.152;24.714;2023-02-28T15:47:29;-24033.94;;;7.77;nan
7105;BME280;3594;42.152;24.714;2023-02-28T15:50:10;-24037.88;;;7.91;nan
7105;BME280;3594;42.152;24.714;2023-02-28T15:52:40;-24040.59;;;8.00;nan
7105;BME280;3594;42.152;24.714;2023-02-28T15:55:27;-24038.47;;;7.93;nan
7105;BME280;3594;42.152;24.714;2023-02-28T15:57:55;-24034.91;;;7.80;nan
7105;BME280;3594;42.152;24.714;2023-02-28T16:00:25;-24032.38;;;7.71;nan
7105;BME280;3594;42.152;24.714;2023-02-28T16:02:51;-24022.44;;;7.36;nan
7105;BME280;3594;42.152;24.714;2023-02-28T16:05:24;-24034.06;;;7.77;nan